createdAt,value
2019-03-08T00:01:27.823Z,99.90
2019-03-08T00:03:58.404Z,99.90
2019-03-08T00:06:29.254Z,99.90
2019-03-08T00:08:59.836Z,99.90
2019-03-08T00:11:30.478Z,99.90
2019-03-08T00:14:00.944Z,99.90
2019-03-08T00:16:31.399Z,99.90
2019-03-08T00:19:02.046Z,99.90
2019-03-08T00:21:32.435Z,99.90
2019-03-08T00:24:02.955Z,99.90
2019-03-08T00:26:33.398Z,99.90
2019-03-08T00:29:05.875Z,99.90
2019-03-08T00:31:36.550Z,99.90
2019-03-08T00:34:07.189Z,99.90
2019-03-08T00:36:37.787Z,99.90
2019-03-08T00:39:08.661Z,99.90
2019-03-08T00:41:38.995Z,99.90
2019-03-08T00:44:09.461Z,99.90
2019-03-08T00:46:39.910Z,99.90
2019-03-08T00:49:10.334Z,99.90
2019-03-08T00:51:40.760Z,99.90
2019-03-08T00:54:11.012Z,99.90
2019-03-08T00:56:41.457Z,99.90
2019-03-08T00:59:11.899Z,99.90
2019-03-08T01:01:42.310Z,99.90
2019-03-08T01:04:12.677Z,99.90
2019-03-08T01:06:43.024Z,99.90
2019-03-08T01:09:13.529Z,99.90
2019-03-08T01:11:45.318Z,99.90
2019-03-08T01:14:15.984Z,99.90
2019-03-08T01:16:46.445Z,99.90
2019-03-08T01:19:16.885Z,99.90
2019-03-08T01:21:47.300Z,99.90
2019-03-08T01:24:17.657Z,99.90
2019-03-08T01:26:47.945Z,99.90
2019-03-08T01:29:18.342Z,99.90
2019-03-08T01:31:48.609Z,99.90
2019-03-08T01:34:19.087Z,99.90
2019-03-08T01:36:49.410Z,99.90
2019-03-08T01:39:19.787Z,99.90
2019-03-08T01:41:50.209Z,99.90
2019-03-08T01:44:20.682Z,99.90
2019-03-08T01:46:51.115Z,99.90
2019-03-08T01:49:21.813Z,99.90
2019-03-08T01:51:52.304Z,99.90
2019-03-08T01:54:22.663Z,99.90
2019-03-08T01:56:53.011Z,99.90
2019-03-08T01:59:23.411Z,99.90
2019-03-08T02:01:54.037Z,99.90
2019-03-08T02:04:24.417Z,99.90
2019-03-08T02:06:54.844Z,99.90
2019-03-08T02:09:25.239Z,99.90
2019-03-08T02:11:55.576Z,99.90
2019-03-08T02:14:26.438Z,99.90
2019-03-08T02:16:56.902Z,99.90
2019-03-08T02:19:27.335Z,99.90
2019-03-08T02:21:57.742Z,99.90
2019-03-08T02:24:28.092Z,99.90
2019-03-08T02:26:58.739Z,99.90
2019-03-08T02:29:29.085Z,99.90
2019-03-08T02:31:59.536Z,99.90
2019-03-08T02:34:29.983Z,99.90
2019-03-08T02:37:00.438Z,99.90
2019-03-08T02:39:30.751Z,99.90
2019-03-08T02:42:01.176Z,99.90
2019-03-08T02:44:31.632Z,99.90
2019-03-08T02:47:02.097Z,99.90
2019-03-08T02:49:32.483Z,99.90
2019-03-08T02:52:03.759Z,99.90
2019-03-08T02:54:34.560Z,99.90
2019-03-08T02:57:05.332Z,99.90
2019-03-08T02:59:35.610Z,99.90
2019-03-08T03:02:06.001Z,99.90
2019-03-08T03:04:36.420Z,99.90
2019-03-08T03:07:06.850Z,99.90
2019-03-08T03:09:37.294Z,99.90
2019-03-08T03:12:07.793Z,99.90
2019-03-08T03:14:38.176Z,99.90
2019-03-08T03:17:08.599Z,99.90
2019-03-08T03:19:38.864Z,99.90
2019-03-08T03:22:09.295Z,99.90
2019-03-08T03:24:39.721Z,99.90
2019-03-08T03:27:10.165Z,99.90
2019-03-08T03:29:40.359Z,99.90
2019-03-08T03:32:10.714Z,99.90
2019-03-08T03:34:41.196Z,99.90
2019-03-08T03:37:11.626Z,99.90
2019-03-08T03:39:42.113Z,99.90
2019-03-08T03:42:12.593Z,99.90
2019-03-08T03:44:43.242Z,99.90
2019-03-08T03:47:13.656Z,99.90
2019-03-08T03:49:44.091Z,99.90
2019-03-08T03:52:14.515Z,99.90
2019-03-08T03:54:44.845Z,99.90
2019-03-08T03:57:15.623Z,99.90
2019-03-08T03:59:45.989Z,99.90
2019-03-08T04:02:16.391Z,99.90
2019-03-08T04:04:46.835Z,99.90
2019-03-08T04:07:17.249Z,99.90
2019-03-08T04:09:47.902Z,99.90
2019-03-08T04:12:18.388Z,99.90
2019-03-08T04:14:48.719Z,99.90
2019-03-08T04:17:19.192Z,99.90
2019-03-08T04:19:49.786Z,99.90
2019-03-08T04:22:20.581Z,99.90
2019-03-08T04:24:51.070Z,99.90
2019-03-08T04:27:21.511Z,99.90
2019-03-08T04:29:51.826Z,99.90
2019-03-08T04:32:22.232Z,99.90
2019-03-08T04:34:52.742Z,99.90
2019-03-08T04:37:23.172Z,99.90
2019-03-08T04:39:53.565Z,99.90
2019-03-08T04:42:23.968Z,99.90
2019-03-08T04:44:54.383Z,99.90
2019-03-08T04:47:24.772Z,99.90
2019-03-08T04:49:55.123Z,99.90
2019-03-08T04:52:25.372Z,99.90
2019-03-08T04:54:55.829Z,99.90
2019-03-08T04:57:26.179Z,99.90
2019-03-08T04:59:56.594Z,99.90
2019-03-08T05:02:28.624Z,99.90
2019-03-08T05:04:59.107Z,99.90
2019-03-08T05:07:29.523Z,99.90
2019-03-08T05:09:59.891Z,99.90
2019-03-08T05:12:31.046Z,99.90
2019-03-08T05:15:01.728Z,99.90
2019-03-08T05:17:32.030Z,99.90
2019-03-08T05:20:02.360Z,99.90
2019-03-08T05:22:32.865Z,99.90
2019-03-08T05:25:03.446Z,99.90
2019-03-08T05:27:34.112Z,99.90
2019-03-08T05:30:04.823Z,99.90
2019-03-08T05:32:35.204Z,99.90
2019-03-08T05:35:06.716Z,99.90
2019-03-08T05:37:37.027Z,99.90
2019-03-08T05:40:08.443Z,99.90
2019-03-08T05:42:38.908Z,99.90
2019-03-08T05:45:09.303Z,99.90
2019-03-08T05:47:39.733Z,99.90
2019-03-08T05:50:10.967Z,99.90
2019-03-08T05:52:41.502Z,99.90
2019-03-08T05:55:11.952Z,99.90
2019-03-08T05:57:42.598Z,99.90
2019-03-08T06:00:14.668Z,99.90
2019-03-08T06:02:45.091Z,99.90
2019-03-08T06:05:15.371Z,99.90
2019-03-08T06:07:45.795Z,99.90
2019-03-08T06:10:36.908Z,99.90
2019-03-08T06:13:08.520Z,99.90
2019-03-08T06:15:39.141Z,99.90
2019-03-08T06:18:09.543Z,99.90
2019-03-08T06:20:39.995Z,99.90
2019-03-08T06:23:10.391Z,99.90
2019-03-08T06:25:40.817Z,99.90
2019-03-08T06:28:11.301Z,99.90
2019-03-08T06:30:41.754Z,99.90
2019-03-08T06:33:12.123Z,99.90
2019-03-08T06:35:42.587Z,99.90
2019-03-08T06:38:12.884Z,99.90
2019-03-08T06:40:43.313Z,99.90
2019-03-08T06:43:13.985Z,99.90
2019-03-08T06:45:44.468Z,99.90
2019-03-08T06:48:14.922Z,99.90
2019-03-08T06:50:45.441Z,99.90
2019-03-08T06:53:15.834Z,99.90
2019-03-08T06:55:46.617Z,99.90
2019-03-08T06:58:25.206Z,99.90
2019-03-08T07:01:14.446Z,99.90
2019-03-08T07:03:44.811Z,99.90
2019-03-08T07:06:15.279Z,99.90
2019-03-08T07:08:45.603Z,99.90
2019-03-08T07:11:16.045Z,99.90
2019-03-08T07:13:46.434Z,99.90
2019-03-08T07:16:16.747Z,99.90
2019-03-08T07:18:47.505Z,99.90
2019-03-08T07:21:39.880Z,99.90
2019-03-08T07:24:16.319Z,99.90
2019-03-08T07:27:05.961Z,99.90
2019-03-08T07:29:54.024Z,99.90
2019-03-08T07:32:49.421Z,99.90
2019-03-08T07:35:28.611Z,99.90
2019-03-08T07:38:29.919Z,99.30
2019-03-08T07:41:31.203Z,97.70
2019-03-08T07:44:22.396Z,98.50
2019-03-08T07:47:17.741Z,98.70
2019-03-08T07:50:07.067Z,98.40
2019-03-08T07:53:05.742Z,98.80
2019-03-08T07:55:53.938Z,97.00
2019-03-08T07:58:51.955Z,90.20
2019-03-08T08:01:27.639Z,86.40
2019-03-08T08:04:15.624Z,78.70
2019-03-08T08:07:17.159Z,75.00
2019-03-08T08:10:03.505Z,76.60
2019-03-08T08:12:50.124Z,79.80
2019-03-08T08:15:37.555Z,82.40
2019-03-08T08:18:45.534Z,75.10
2019-03-08T08:21:23.145Z,69.30
2019-03-08T08:23:59.359Z,62.80
2019-03-08T08:26:51.186Z,64.40
2019-03-08T08:29:46.699Z,68.10
2019-03-08T08:32:39.881Z,65.20
2019-03-08T08:35:28.234Z,56.40
2019-03-08T08:38:21.105Z,52.40
2019-03-08T08:41:09.145Z,51.00
2019-03-08T08:43:58.967Z,53.70
2019-03-08T08:46:51.347Z,58.80
2019-03-08T08:49:42.169Z,59.60
2019-03-08T08:52:31.669Z,61.80
2019-03-08T08:55:15.691Z,60.90
2019-03-08T08:58:14.487Z,61.20
2019-03-08T09:01:12.887Z,63.10
2019-03-08T09:03:51.482Z,63.80
2019-03-08T09:06:47.345Z,64.40
2019-03-08T09:09:43.176Z,62.20
2019-03-08T09:12:31.169Z,62.80
2019-03-08T09:15:08.607Z,62.80
2019-03-08T09:17:50.083Z,60.50
2019-03-08T09:20:38.044Z,61.10
2019-03-08T09:23:24.311Z,62.20
2019-03-08T09:26:12.873Z,64.30
2019-03-08T09:28:54.599Z,63.40
2019-03-08T09:31:34.033Z,59.70
2019-03-08T09:34:23.557Z,54.90
2019-03-08T09:37:06.706Z,51.30
2019-03-08T09:39:54.950Z,50.90
2019-03-08T09:43:02.615Z,49.20
2019-03-08T09:45:57.927Z,48.00
2019-03-08T09:48:48.923Z,49.50
2019-03-08T09:51:40.063Z,49.00
2019-03-08T09:54:18.531Z,51.20
2019-03-08T09:57:02.620Z,50.70
2019-03-08T09:59:58.202Z,50.00
2019-03-08T10:02:53.515Z,50.00
2019-03-08T10:05:31.552Z,48.00
2019-03-08T10:08:17.349Z,42.70
2019-03-08T10:10:58.505Z,43.40
2019-03-08T10:13:53.998Z,41.10
2019-03-08T10:16:29.369Z,38.90
2019-03-08T10:19:08.676Z,41.60
2019-03-08T10:21:56.947Z,43.00
2019-03-08T10:24:49.245Z,43.20
2019-03-08T10:27:37.600Z,43.10
2019-03-08T10:30:32.063Z,40.10
2019-03-08T10:33:20.516Z,38.10
2019-03-08T10:36:12.903Z,36.80
2019-03-08T10:39:01.096Z,37.80
2019-03-08T10:41:47.210Z,39.70
2019-03-08T10:44:42.263Z,39.50
2019-03-08T10:47:55.618Z,39.70
2019-03-08T10:50:36.640Z,40.00
2019-03-08T10:53:35.165Z,43.00
2019-03-08T10:56:18.238Z,44.10
2019-03-08T10:59:13.770Z,45.50
2019-03-08T11:01:52.217Z,47.30
2019-03-08T11:04:40.018Z,44.70
2019-03-08T11:07:21.796Z,45.80
2019-03-08T11:10:23.229Z,46.40
2019-03-08T11:13:21.821Z,47.70
2019-03-08T11:16:25.046Z,48.70
2019-03-08T11:19:16.110Z,50.70
2019-03-08T11:21:59.963Z,49.30
2019-03-08T11:24:50.288Z,49.50
2019-03-08T11:27:38.690Z,52.20
2019-03-08T11:30:38.416Z,54.20
2019-03-08T11:33:33.799Z,55.40
2019-03-08T11:36:23.138Z,55.80
2019-03-08T11:39:11.929Z,56.20
2019-03-08T11:42:10.724Z,56.90
2019-03-08T11:45:09.090Z,57.20
2019-03-08T11:47:56.702Z,56.90
2019-03-08T11:50:46.462Z,58.80
2019-03-08T11:53:36.165Z,58.80
2019-03-08T11:56:25.403Z,60.10
2019-03-08T11:59:26.755Z,58.70
2019-03-08T12:02:22.779Z,58.70
2019-03-08T12:05:00.732Z,60.00
2019-03-08T12:07:51.793Z,60.30
2019-03-08T12:10:30.594Z,62.80
2019-03-08T12:13:16.612Z,63.00
2019-03-08T12:16:12.224Z,61.70
2019-03-08T12:19:00.270Z,58.80
2019-03-08T12:22:01.757Z,58.10
2019-03-08T12:24:40.106Z,59.40
2019-03-08T12:27:32.845Z,57.20
2019-03-08T12:30:33.020Z,55.30
2019-03-08T12:33:28.144Z,54.90
2019-03-08T12:36:06.225Z,55.30
2019-03-08T12:38:50.906Z,52.10
2019-03-08T12:41:49.154Z,50.60
2019-03-08T12:44:25.379Z,50.60
2019-03-08T12:47:11.434Z,52.00
2019-03-08T12:50:15.911Z,52.60
2019-03-08T12:53:08.164Z,54.00
2019-03-08T12:56:13.661Z,57.30
2019-03-08T12:59:02.885Z,57.60
2019-03-08T13:01:40.499Z,59.20
2019-03-08T13:04:28.572Z,58.20
2019-03-08T13:07:18.502Z,58.30
2019-03-08T13:09:48.960Z,57.80
2019-03-08T13:12:19.877Z,58.00
2019-03-08T13:14:50.335Z,56.70
2019-03-08T13:17:21.005Z,54.70
2019-03-08T13:19:51.452Z,55.50
2019-03-08T13:22:22.212Z,54.90
2019-03-08T13:24:52.630Z,54.10
2019-03-08T13:27:23.105Z,53.80
2019-03-08T13:29:53.602Z,53.80
2019-03-08T13:32:24.201Z,54.90
2019-03-08T13:34:55.054Z,54.60
2019-03-08T13:37:25.492Z,53.60
2019-03-08T13:39:55.964Z,54.70
2019-03-08T13:42:26.275Z,54.70
2019-03-08T13:44:56.713Z,55.10
2019-03-08T13:47:27.060Z,55.20
2019-03-08T13:49:57.472Z,54.70
2019-03-08T13:52:27.890Z,53.70
2019-03-08T13:54:58.343Z,54.30
2019-03-08T13:57:28.838Z,53.60
2019-03-08T13:59:59.308Z,54.40
2019-03-08T14:02:29.649Z,55.40
2019-03-08T14:05:00.066Z,54.10
2019-03-08T14:07:30.463Z,53.90
2019-03-08T14:10:00.830Z,54.10
2019-03-08T14:12:31.208Z,54.90
2019-03-08T14:15:01.635Z,54.10
2019-03-08T14:17:32.046Z,54.70
2019-03-08T14:20:09.425Z,55.40
2019-03-08T14:22:39.881Z,55.50
2019-03-08T14:25:10.481Z,55.50
2019-03-08T14:27:40.929Z,54.40
2019-03-08T14:30:14.420Z,54.60
2019-03-08T14:32:45.177Z,55.80
2019-03-08T14:35:16.161Z,56.40
2019-03-08T14:37:46.518Z,57.10
2019-03-08T14:40:35.011Z,57.30
2019-03-08T14:43:20.104Z,56.20
2019-03-08T14:46:01.592Z,56.80
2019-03-08T14:48:32.050Z,55.30
2019-03-08T14:51:02.697Z,55.80
2019-03-08T14:53:34.327Z,56.50
2019-03-08T14:56:04.887Z,56.80
2019-03-08T14:58:36.761Z,56.90
2019-03-08T15:01:07.458Z,57.40
2019-03-08T15:03:43.409Z,58.20
2019-03-08T15:06:09.952Z,58.40
2019-03-08T15:08:40.341Z,58.80
2019-03-08T15:11:10.971Z,58.90
2019-03-08T15:13:42.489Z,59.20
2019-03-08T15:16:12.912Z,59.60
2019-03-08T15:18:43.343Z,58.90
2019-03-08T15:21:13.771Z,61.10
2019-03-08T15:23:44.187Z,59.40
2019-03-08T15:26:14.798Z,59.50
2019-03-08T15:28:45.162Z,59.20
2019-03-08T15:31:15.624Z,59.20
2019-03-08T15:33:45.998Z,58.20
2019-03-08T15:36:16.326Z,58.70
2019-03-08T15:38:46.655Z,59.00
2019-03-08T15:41:17.122Z,59.10
2019-03-08T15:43:51.341Z,59.80
2019-03-08T15:46:22.338Z,60.40
2019-03-08T15:48:53.135Z,61.60
2019-03-08T15:51:25.197Z,61.90
2019-03-08T15:53:55.981Z,62.90
2019-03-08T15:56:26.452Z,63.60
2019-03-08T15:59:06.329Z,64.00
2019-03-08T16:01:36.759Z,64.50
2019-03-08T16:04:08.232Z,64.00
2019-03-08T16:06:39.856Z,63.50
2019-03-08T16:09:11.634Z,63.80
2019-03-08T16:11:42.121Z,63.80
2019-03-08T16:14:12.415Z,64.80
2019-03-08T16:16:42.869Z,65.30
2019-03-08T16:19:13.217Z,65.90
2019-03-08T16:21:46.725Z,66.30
2019-03-08T16:24:15.744Z,68.00
2019-03-08T16:26:46.223Z,68.70
2019-03-08T16:29:16.963Z,69.50
2019-03-08T16:32:05.968Z,68.80
2019-03-08T16:34:36.312Z,69.60
2019-03-08T16:37:14.757Z,69.70
2019-03-08T16:40:24.160Z,70.10
2019-03-08T16:43:16.077Z,70.00
2019-03-08T16:45:56.316Z,70.50
2019-03-08T16:48:40.318Z,71.70
2019-03-08T16:51:39.726Z,71.30
2019-03-08T16:54:26.792Z,72.30
2019-03-08T16:57:11.900Z,72.90
2019-03-08T17:00:04.259Z,72.80
2019-03-08T17:03:02.991Z,73.50
2019-03-08T17:06:01.282Z,74.80
2019-03-08T17:08:42.127Z,75.20
2019-03-08T17:11:43.477Z,76.00
2019-03-08T17:14:41.664Z,76.10
2019-03-08T17:17:37.001Z,76.50
2019-03-08T17:20:14.025Z,77.30
2019-03-08T17:23:03.344Z,78.30
2019-03-08T17:25:45.922Z,79.10
2019-03-08T17:28:35.192Z,79.10
2019-03-08T17:31:24.426Z,79.30
2019-03-08T17:34:14.552Z,79.20
2019-03-08T17:36:53.729Z,79.50
2019-03-08T17:39:45.942Z,79.90
2019-03-08T17:42:38.765Z,80.60
2019-03-08T17:45:27.664Z,81.10
2019-03-08T17:48:20.134Z,82.10
2019-03-08T17:51:08.464Z,82.10
2019-03-08T17:53:48.145Z,83.00
2019-03-08T17:56:43.985Z,85.50
2019-03-08T17:59:23.937Z,86.50
2019-03-08T18:02:19.411Z,88.20
2019-03-08T18:05:11.843Z,89.60
2019-03-08T18:08:13.641Z,90.80
2019-03-08T18:11:18.172Z,92.30
2019-03-08T18:14:10.786Z,93.60
2019-03-08T18:16:58.682Z,95.30
2019-03-08T18:19:47.998Z,96.60
2019-03-08T18:22:34.589Z,98.50
2019-03-08T18:25:22.208Z,99.90
2019-03-08T18:28:11.592Z,99.90
2019-03-08T18:31:07.170Z,99.90
2019-03-08T18:33:55.070Z,99.90
2019-03-08T18:36:44.532Z,99.90
2019-03-08T18:39:33.785Z,99.90
2019-03-08T18:42:13.232Z,99.90
2019-03-08T18:45:09.644Z,99.90
2019-03-08T18:47:58.902Z,99.90
2019-03-08T18:50:55.064Z,99.90
2019-03-08T18:53:36.574Z,99.90
2019-03-08T18:56:40.929Z,99.90
2019-03-08T18:59:39.373Z,99.90
2019-03-08T19:02:22.467Z,99.90
2019-03-08T19:05:03.441Z,99.90
2019-03-08T19:07:58.831Z,99.90
2019-03-08T19:10:50.893Z,99.90
2019-03-08T19:13:36.296Z,99.90
2019-03-08T19:16:25.746Z,99.90
2019-03-08T19:19:23.928Z,99.90
2019-03-08T19:22:00.405Z,99.90
2019-03-08T19:24:48.385Z,99.90
2019-03-08T19:27:27.365Z,99.90
2019-03-08T19:30:18.771Z,99.90
2019-03-08T19:33:26.618Z,99.90
2019-03-08T19:36:04.991Z,99.90
2019-03-08T19:39:00.288Z,99.90
2019-03-08T19:41:49.633Z,99.90
2019-03-08T19:44:41.690Z,99.90
2019-03-08T19:47:25.829Z,99.90
2019-03-08T19:50:23.585Z,99.90
2019-03-08T19:53:11.561Z,99.90
2019-03-08T19:56:10.137Z,99.90
2019-03-08T19:59:02.099Z,99.90
2019-03-08T20:01:41.403Z,99.90
2019-03-08T20:04:33.622Z,99.90
2019-03-08T20:07:31.972Z,99.90
2019-03-08T20:10:24.049Z,99.90
2019-03-08T20:13:12.306Z,99.90
2019-03-08T20:16:02.926Z,99.90
2019-03-08T20:19:04.309Z,99.90
2019-03-08T20:21:51.859Z,99.90
2019-03-08T20:24:39.942Z,99.90
2019-03-08T20:27:38.242Z,99.90
2019-03-08T20:30:29.515Z,99.90
2019-03-08T20:33:17.522Z,99.90
2019-03-08T20:36:09.567Z,99.90
2019-03-08T20:38:57.630Z,99.90
2019-03-08T20:41:46.933Z,99.90
2019-03-08T20:44:24.529Z,99.90
2019-03-08T20:47:02.071Z,99.90
2019-03-08T20:49:32.519Z,99.90
2019-03-08T20:52:02.778Z,99.90
2019-03-08T20:54:33.095Z,99.90
2019-03-08T20:57:03.537Z,99.90
2019-03-08T20:59:34.023Z,99.90
2019-03-08T21:02:04.453Z,99.90
2019-03-08T21:04:35.057Z,99.90
2019-03-08T21:07:06.677Z,99.90
2019-03-08T21:09:37.160Z,99.90
2019-03-08T21:12:07.588Z,99.90
2019-03-08T21:14:38.044Z,99.90
2019-03-08T21:17:08.817Z,99.90
2019-03-08T21:19:39.481Z,99.90
2019-03-08T21:22:09.926Z,99.90
2019-03-08T21:24:40.307Z,99.90
2019-03-08T21:27:10.681Z,99.90
2019-03-08T21:29:41.177Z,99.90
2019-03-08T21:32:14.192Z,99.90
2019-03-08T21:34:44.531Z,99.90
2019-03-08T21:37:14.842Z,99.90
2019-03-08T21:39:45.133Z,99.90
2019-03-08T21:42:15.613Z,99.90
2019-03-08T21:44:45.984Z,99.90
2019-03-08T21:47:16.555Z,99.90
2019-03-08T21:49:47.199Z,99.90
2019-03-08T21:52:17.628Z,99.90
2019-03-08T21:54:48.472Z,99.90
2019-03-08T21:57:19.019Z,99.90
2019-03-08T21:59:49.411Z,99.90
2019-03-08T22:02:19.832Z,99.90
2019-03-08T22:04:56.666Z,99.90
2019-03-08T22:07:27.072Z,99.90
2019-03-08T22:10:16.412Z,99.90
2019-03-08T22:12:46.759Z,99.90
2019-03-08T22:15:17.215Z,99.90
2019-03-08T22:17:47.536Z,99.90
2019-03-08T22:20:17.901Z,99.90
2019-03-08T22:22:48.339Z,99.90
2019-03-08T22:25:20.255Z,99.90
2019-03-08T22:27:50.718Z,99.90
2019-03-08T22:30:21.211Z,99.90
2019-03-08T22:32:51.711Z,99.90
2019-03-08T22:35:22.185Z,99.90
2019-03-08T22:37:52.897Z,99.90
2019-03-08T22:40:23.316Z,99.90
2019-03-08T22:42:54.130Z,99.90
2019-03-08T22:45:24.565Z,99.90
2019-03-08T22:47:55.007Z,99.90
2019-03-08T22:50:25.771Z,99.90
2019-03-08T22:52:56.249Z,99.90
2019-03-08T22:55:26.757Z,99.90
2019-03-08T22:57:57.255Z,99.90
2019-03-08T23:00:52.497Z,99.90
2019-03-08T23:03:23.405Z,99.90
2019-03-08T23:05:53.834Z,99.90
2019-03-08T23:08:24.118Z,99.90
2019-03-08T23:10:54.728Z,99.90
2019-03-08T23:13:25.336Z,99.90
2019-03-08T23:15:55.767Z,99.90
2019-03-08T23:18:26.328Z,99.90
2019-03-08T23:20:56.604Z,99.90
2019-03-08T23:23:27.029Z,99.90
2019-03-08T23:25:57.385Z,99.90
2019-03-08T23:28:46.850Z,99.90
2019-03-08T23:31:22.816Z,99.90
2019-03-08T23:33:53.280Z,99.90
2019-03-08T23:36:23.661Z,99.90
2019-03-08T23:38:54.341Z,99.90
2019-03-08T23:41:25.035Z,99.90
2019-03-08T23:43:55.409Z,99.90
2019-03-08T23:46:25.899Z,99.90
2019-03-08T23:48:56.437Z,99.90
2019-03-08T23:51:26.898Z,99.90
2019-03-08T23:53:57.452Z,99.90
2019-03-08T23:56:27.914Z,99.90
2019-03-08T23:58:58.358Z,99.90
